sensor_id;sensor_type;location;lat;lon;timestamp;temperature;humidity
33943;DHT22;66763;47.856;17.462;2023-11-21T00:02:04;12.70;51.40
33943;DHT22;66763;47.856;17.462;2023-11-21T00:04:30;12.70;51.40
33943;DHT22;66763;47.856;17.462;2023-11-21T00:06:55;12.70;51.40
33943;DHT22;66763;47.856;17.462;2023-11-21T00:09:21;12.70;51.40
33943;DHT22;66763;47.856;17.462;2023-11-21T00:11:47;12.70;51.50
33943;DHT22;66763;47.856;17.462;2023-11-21T00:14:12;12.70;51.40
33943;DHT22;66763;47.856;17.462;2023-11-21T00:16:40;12.70;51.40
33943;DHT22;66763;47.856;17.462;2023-11-21T00:19:05;12.70;51.30
33943;DHT22;66763;47.856;17.462;2023-11-21T00:21:31;12.70;51.40
33943;DHT22;66763;47.856;17.462;2023-11-21T00:23:56;12.70;51.40
33943;DHT22;66763;47.856;17.462;2023-11-21T00:26:22;12.70;51.40
33943;DHT22;66763;47.856;17.462;2023-11-21T00:28:47;12.70;51.40
33943;DHT22;66763;47.856;17.462;2023-11-21T00:31:12;12.70;51.50
33943;DHT22;66763;47.856;17.462;2023-11-21T00:33:38;12.70;51.40
33943;DHT22;66763;47.856;17.462;2023-11-21T00:36:04;12.70;51.50
33943;DHT22;66763;47.856;17.462;2023-11-21T00:38:31;12.70;51.40
33943;DHT22;66763;47.856;17.462;2023-11-21T00:40:56;12.70;51.40
33943;DHT22;66763;47.856;17.462;2023-11-21T00:43:22;12.80;51.40
33943;DHT22;66763;47.856;17.462;2023-11-21T00:45:48;12.70;51.40
33943;DHT22;66763;47.856;17.462;2023-11-21T00:48:14;12.70;51.40
33943;DHT22;66763;47.856;17.462;2023-11-21T00:50:40;12.70;51.40
33943;DHT22;66763;47.856;17.462;2023-11-21T00:53:05;12.70;51.40
33943;DHT22;66763;47.856;17.462;2023-11-21T00:55:32;12.70;51.40
33943;DHT22;66763;47.856;17.462;2023-11-21T00:57:58;12.70;51.40
33943;DHT22;66763;47.856;17.462;2023-11-21T01:00:25;12.80;51.40
33943;DHT22;66763;47.856;17.462;2023-11-21T01:02:50;12.70;51.40
33943;DHT22;66763;47.856;17.462;2023-11-21T01:05:16;12.70;51.40
33943;DHT22;66763;47.856;17.462;2023-11-21T01:07:41;12.70;51.40
33943;DHT22;66763;47.856;17.462;2023-11-21T01:10:07;12.70;51.40
33943;DHT22;66763;47.856;17.462;2023-11-21T01:12:37;12.70;51.40
33943;DHT22;66763;47.856;17.462;2023-11-21T01:15:03;12.70;51.40
33943;DHT22;66763;47.856;17.462;2023-11-21T01:17:29;12.70;51.40
33943;DHT22;66763;47.856;17.462;2023-11-21T01:19:54;12.70;51.40
33943;DHT22;66763;47.856;17.462;2023-11-21T01:22:21;12.70;51.40
33943;DHT22;66763;47.856;17.462;2023-11-21T01:24:51;12.70;51.40
33943;DHT22;66763;47.856;17.462;2023-11-21T01:27:16;12.70;51.40
33943;DHT22;66763;47.856;17.462;2023-11-21T01:29:42;12.70;51.30
33943;DHT22;66763;47.856;17.462;2023-11-21T01:32:07;12.70;51.40
33943;DHT22;66763;47.856;17.462;2023-11-21T01:34:33;12.70;51.30
33943;DHT22;66763;47.856;17.462;2023-11-21T01:36:59;12.70;51.30
33943;DHT22;66763;47.856;17.462;2023-11-21T01:39:24;12.70;51.40
33943;DHT22;66763;47.856;17.462;2023-11-21T01:41:51;12.70;51.40
33943;DHT22;66763;47.856;17.462;2023-11-21T01:44:17;12.70;51.40
33943;DHT22;66763;47.856;17.462;2023-11-21T01:46:44;12.70;51.40
33943;DHT22;66763;47.856;17.462;2023-11-21T01:49:10;12.70;51.40
33943;DHT22;66763;47.856;17.462;2023-11-21T01:51:38;12.70;51.40
33943;DHT22;66763;47.856;17.462;2023-11-21T01:54:04;12.70;51.40
33943;DHT22;66763;47.856;17.462;2023-11-21T01:56:30;12.70;51.40
33943;DHT22;66763;47.856;17.462;2023-11-21T01:58:57;12.70;51.30
33943;DHT22;66763;47.856;17.462;2023-11-21T02:01:22;12.70;51.40
33943;DHT22;66763;47.856;17.462;2023-11-21T02:03:48;12.70;51.40
33943;DHT22;66763;47.856;17.462;2023-11-21T02:06:13;12.70;51.40
33943;DHT22;66763;47.856;17.462;2023-11-21T02:08:39;12.70;51.30
33943;DHT22;66763;47.856;17.462;2023-11-21T02:11:05;12.70;51.40
33943;DHT22;66763;47.856;17.462;2023-11-21T02:13:30;12.70;51.40
33943;DHT22;66763;47.856;17.462;2023-11-21T02:15:57;12.70;51.40
33943;DHT22;66763;47.856;17.462;2023-11-21T02:18:23;12.70;51.40
33943;DHT22;66763;47.856;17.462;2023-11-21T02:20:48;12.70;51.40
33943;DHT22;66763;47.856;17.462;2023-11-21T02:23:14;12.70;51.40
33943;DHT22;66763;47.856;17.462;2023-11-21T02:25:39;12.70;51.40
33943;DHT22;66763;47.856;17.462;2023-11-21T02:28:07;12.70;51.40
33943;DHT22;66763;47.856;17.462;2023-11-21T02:30:33;12.70;51.40
33943;DHT22;66763;47.856;17.462;2023-11-21T02:32:59;12.70;51.30
33943;DHT22;66763;47.856;17.462;2023-11-21T02:35:24;12.70;51.40
33943;DHT22;66763;47.856;17.462;2023-11-21T02:37:53;12.70;51.40
33943;DHT22;66763;47.856;17.462;2023-11-21T02:40:18;12.70;51.40
33943;DHT22;66763;47.856;17.462;2023-11-21T02:42:48;12.70;51.40
33943;DHT22;66763;47.856;17.462;2023-11-21T02:45:17;12.70;51.30
33943;DHT22;66763;47.856;17.462;2023-11-21T02:47:43;12.70;51.30
33943;DHT22;66763;47.856;17.462;2023-11-21T02:50:08;12.70;51.40
33943;DHT22;66763;47.856;17.462;2023-11-21T02:52:34;12.70;51.30
33943;DHT22;66763;47.856;17.462;2023-11-21T02:55:01;12.70;51.30
33943;DHT22;66763;47.856;17.462;2023-11-21T02:57:26;12.70;51.40
33943;DHT22;66763;47.856;17.462;2023-11-21T02:59:52;12.70;51.40
33943;DHT22;66763;47.856;17.462;2023-11-21T03:02:17;12.70;51.40
33943;DHT22;66763;47.856;17.462;2023-11-21T03:04:43;12.70;51.40
33943;DHT22;66763;47.856;17.462;2023-11-21T03:07:08;12.70;51.40
33943;DHT22;66763;47.856;17.462;2023-11-21T03:09:34;12.70;51.40
33943;DHT22;66763;47.856;17.462;2023-11-21T03:12:00;12.70;52.00
33943;DHT22;66763;47.856;17.462;2023-11-21T03:14:25;12.70;51.40
33943;DHT22;66763;47.856;17.462;2023-11-21T03:16:51;12.70;51.40
33943;DHT22;66763;47.856;17.462;2023-11-21T03:19:16;12.70;51.40
33943;DHT22;66763;47.856;17.462;2023-11-21T03:21:42;12.70;51.40
33943;DHT22;66763;47.856;17.462;2023-11-21T03:24:07;12.70;51.40
33943;DHT22;66763;47.856;17.462;2023-11-21T03:26:33;12.70;51.40
33943;DHT22;66763;47.856;17.462;2023-11-21T03:28:59;12.70;51.40
33943;DHT22;66763;47.856;17.462;2023-11-21T03:31:24;12.70;51.30
33943;DHT22;66763;47.856;17.462;2023-11-21T03:33:49;12.70;51.30
33943;DHT22;66763;47.856;17.462;2023-11-21T03:36:15;12.70;51.40
33943;DHT22;66763;47.856;17.462;2023-11-21T03:38:41;12.70;51.30
33943;DHT22;66763;47.856;17.462;2023-11-21T03:41:07;12.70;51.40
33943;DHT22;66763;47.856;17.462;2023-11-21T03:43:35;12.70;51.40
33943;DHT22;66763;47.856;17.462;2023-11-21T03:46:01;12.70;51.30
33943;DHT22;66763;47.856;17.462;2023-11-21T03:48:27;12.70;51.30
33943;DHT22;66763;47.856;17.462;2023-11-21T03:50:52;12.70;51.30
33943;DHT22;66763;47.856;17.462;2023-11-21T03:53:18;12.70;51.30
33943;DHT22;66763;47.856;17.462;2023-11-21T03:55:43;12.70;51.40
33943;DHT22;66763;47.856;17.462;2023-11-21T03:58:09;12.70;51.40
33943;DHT22;66763;47.856;17.462;2023-11-21T04:00:34;12.70;51.40
33943;DHT22;66763;47.856;17.462;2023-11-21T04:03:00;12.70;51.40
33943;DHT22;66763;47.856;17.462;2023-11-21T04:05:25;12.70;51.40
33943;DHT22;66763;47.856;17.462;2023-11-21T04:07:51;12.70;51.40
33943;DHT22;66763;47.856;17.462;2023-11-21T04:10:16;12.70;51.40
33943;DHT22;66763;47.856;17.462;2023-11-21T04:12:42;12.70;51.40
33943;DHT22;66763;47.856;17.462;2023-11-21T04:15:08;12.70;51.40
33943;DHT22;66763;47.856;17.462;2023-11-21T04:17:34;12.70;51.40
33943;DHT22;66763;47.856;17.462;2023-11-21T04:19:59;12.70;51.30
33943;DHT22;66763;47.856;17.462;2023-11-21T04:22:25;12.70;51.40
33943;DHT22;66763;47.856;17.462;2023-11-21T04:24:50;12.70;51.30
33943;DHT22;66763;47.856;17.462;2023-11-21T04:27:16;12.70;51.40
33943;DHT22;66763;47.856;17.462;2023-11-21T04:29:43;12.70;51.30
33943;DHT22;66763;47.856;17.462;2023-11-21T04:32:09;12.70;51.30
33943;DHT22;66763;47.856;17.462;2023-11-21T04:34:34;12.70;51.40
33943;DHT22;66763;47.856;17.462;2023-11-21T04:37:00;12.70;51.30
33943;DHT22;66763;47.856;17.462;2023-11-21T04:39:26;12.70;51.30
33943;DHT22;66763;47.856;17.462;2023-11-21T04:41:51;12.70;51.40
33943;DHT22;66763;47.856;17.462;2023-11-21T04:44:17;12.70;51.30
33943;DHT22;66763;47.856;17.462;2023-11-21T04:46:42;12.60;51.40
33943;DHT22;66763;47.856;17.462;2023-11-21T04:49:08;12.70;51.40
33943;DHT22;66763;47.856;17.462;2023-11-21T04:51:34;12.70;51.30
33943;DHT22;66763;47.856;17.462;2023-11-21T04:53:59;12.70;51.40
33943;DHT22;66763;47.856;17.462;2023-11-21T04:56:25;12.70;51.30
33943;DHT22;66763;47.856;17.462;2023-11-21T04:58:50;12.70;51.40
33943;DHT22;66763;47.856;17.462;2023-11-21T05:01:16;12.70;51.30
33943;DHT22;66763;47.856;17.462;2023-11-21T05:03:41;12.70;51.30
33943;DHT22;66763;47.856;17.462;2023-11-21T05:06:09;12.70;51.30
33943;DHT22;66763;47.856;17.462;2023-11-21T05:08:35;12.70;51.30
33943;DHT22;66763;47.856;17.462;2023-11-21T05:11:02;12.70;51.30
33943;DHT22;66763;47.856;17.462;2023-11-21T05:13:27;12.70;51.30
33943;DHT22;66763;47.856;17.462;2023-11-21T05:15:54;12.70;51.30
33943;DHT22;66763;47.856;17.462;2023-11-21T05:18:20;12.70;51.30
33943;DHT22;66763;47.856;17.462;2023-11-21T05:20:45;12.70;51.30
33943;DHT22;66763;47.856;17.462;2023-11-21T05:23:12;12.70;51.30
33943;DHT22;66763;47.856;17.462;2023-11-21T05:25:38;12.70;51.30
33943;DHT22;66763;47.856;17.462;2023-11-21T05:28:03;12.70;51.30
33943;DHT22;66763;47.856;17.462;2023-11-21T05:30:29;12.70;51.30
33943;DHT22;66763;47.856;17.462;2023-11-21T05:32:54;12.70;51.30
33943;DHT22;66763;47.856;17.462;2023-11-21T05:35:20;12.70;51.40
33943;DHT22;66763;47.856;17.462;2023-11-21T05:37:46;12.70;51.30
33943;DHT22;66763;47.856;17.462;2023-11-21T05:40:12;12.70;51.30
33943;DHT22;66763;47.856;17.462;2023-11-21T05:42:38;12.60;51.90
33943;DHT22;66763;47.856;17.462;2023-11-21T05:45:04;12.70;51.30
33943;DHT22;66763;47.856;17.462;2023-11-21T05:47:40;12.70;51.40
33943;DHT22;66763;47.856;17.462;2023-11-21T05:50:06;12.70;51.40
33943;DHT22;66763;47.856;17.462;2023-11-21T05:52:31;12.60;51.30
33943;DHT22;66763;47.856;17.462;2023-11-21T05:54:58;12.70;51.30
33943;DHT22;66763;47.856;17.462;2023-11-21T05:57:23;12.60;51.30
33943;DHT22;66763;47.856;17.462;2023-11-21T05:59:49;12.70;51.30
33943;DHT22;66763;47.856;17.462;2023-11-21T06:02:14;12.70;51.40
33943;DHT22;66763;47.856;17.462;2023-11-21T06:04:40;12.60;51.30
33943;DHT22;66763;47.856;17.462;2023-11-21T06:07:05;12.60;51.90
33943;DHT22;66763;47.856;17.462;2023-11-21T06:09:30;12.70;51.40
33943;DHT22;66763;47.856;17.462;2023-11-21T06:11:56;12.70;51.30
33943;DHT22;66763;47.856;17.462;2023-11-21T06:14:21;12.60;51.30
33943;DHT22;66763;47.856;17.462;2023-11-21T06:16:47;12.70;51.30
33943;DHT22;66763;47.856;17.462;2023-11-21T06:19:12;12.60;51.30
33943;DHT22;66763;47.856;17.462;2023-11-21T06:21:38;12.70;51.40
33943;DHT22;66763;47.856;17.462;2023-11-21T06:24:04;12.60;51.30
33943;DHT22;66763;47.856;17.462;2023-11-21T06:26:29;12.70;51.30
33943;DHT22;66763;47.856;17.462;2023-11-21T06:28:57;12.70;51.30
33943;DHT22;66763;47.856;17.462;2023-11-21T06:31:22;12.70;51.30
33943;DHT22;66763;47.856;17.462;2023-11-21T06:33:48;12.70;51.40
33943;DHT22;66763;47.856;17.462;2023-11-21T06:36:13;12.70;51.40
33943;DHT22;66763;47.856;17.462;2023-11-21T06:38:39;12.70;51.40
33943;DHT22;66763;47.856;17.462;2023-11-21T06:41:04;12.70;51.30
33943;DHT22;66763;47.856;17.462;2023-11-21T06:43:30;12.70;51.30
33943;DHT22;66763;47.856;17.462;2023-11-21T06:45:58;12.70;51.30
33943;DHT22;66763;47.856;17.462;2023-11-21T06:48:24;12.60;51.30
33943;DHT22;66763;47.856;17.462;2023-11-21T06:50:50;12.70;51.30
33943;DHT22;66763;47.856;17.462;2023-11-21T06:53:17;12.70;51.40
33943;DHT22;66763;47.856;17.462;2023-11-21T06:55:42;12.70;51.30
33943;DHT22;66763;47.856;17.462;2023-11-21T06:58:08;12.70;51.30
33943;DHT22;66763;47.856;17.462;2023-11-21T07:00:34;12.70;51.30
33943;DHT22;66763;47.856;17.462;2023-11-21T07:02:59;12.70;51.30
33943;DHT22;66763;47.856;17.462;2023-11-21T07:05:24;12.60;51.30
33943;DHT22;66763;47.856;17.462;2023-11-21T07:07:50;12.60;51.20
33943;DHT22;66763;47.856;17.462;2023-11-21T07:10:16;12.60;51.30
33943;DHT22;66763;47.856;17.462;2023-11-21T07:12:42;12.70;51.90
33943;DHT22;66763;47.856;17.462;2023-11-21T07:15:07;12.70;51.30
33943;DHT22;66763;47.856;17.462;2023-11-21T07:17:34;12.60;51.30
33943;DHT22;66763;47.856;17.462;2023-11-21T07:20:00;12.60;51.30
33943;DHT22;66763;47.856;17.462;2023-11-21T07:22:26;12.60;51.20
33943;DHT22;66763;47.856;17.462;2023-11-21T07:24:51;12.70;51.30
33943;DHT22;66763;47.856;17.462;2023-11-21T07:27:17;12.70;51.40
33943;DHT22;66763;47.856;17.462;2023-11-21T07:29:42;12.60;51.30
33943;DHT22;66763;47.856;17.462;2023-11-21T07:32:08;12.70;51.30
33943;DHT22;66763;47.856;17.462;2023-11-21T07:34:35;12.60;51.30
33943;DHT22;66763;47.856;17.462;2023-11-21T07:37:01;12.60;51.20
33943;DHT22;66763;47.856;17.462;2023-11-21T07:39:27;12.60;51.30
33943;DHT22;66763;47.856;17.462;2023-11-21T07:41:52;12.60;51.30
33943;DHT22;66763;47.856;17.462;2023-11-21T07:44:17;12.60;51.30
33943;DHT22;66763;47.856;17.462;2023-11-21T07:46:43;12.60;51.30
33943;DHT22;66763;47.856;17.462;2023-11-21T07:49:09;12.60;51.30
33943;DHT22;66763;47.856;17.462;2023-11-21T07:51:34;12.60;51.30
33943;DHT22;66763;47.856;17.462;2023-11-21T07:54:00;12.60;51.30
33943;DHT22;66763;47.856;17.462;2023-11-21T07:56:26;12.60;51.30
33943;DHT22;66763;47.856;17.462;2023-11-21T07:58:51;12.60;51.20
33943;DHT22;66763;47.856;17.462;2023-11-21T08:01:17;12.70;51.30
33943;DHT22;66763;47.856;17.462;2023-11-21T08:03:42;12.60;51.30
33943;DHT22;66763;47.856;17.462;2023-11-21T08:06:09;12.60;51.30
33943;DHT22;66763;47.856;17.462;2023-11-21T08:08:34;12.60;51.30
33943;DHT22;66763;47.856;17.462;2023-11-21T08:11:00;12.60;51.30
33943;DHT22;66763;47.856;17.462;2023-11-21T08:13:27;12.70;51.90
33943;DHT22;66763;47.856;17.462;2023-11-21T08:15:56;12.60;51.20
33943;DHT22;66763;47.856;17.462;2023-11-21T08:18:26;12.60;51.30
33943;DHT22;66763;47.856;17.462;2023-11-21T08:20:52;12.60;51.40
33943;DHT22;66763;47.856;17.462;2023-11-21T08:23:20;12.60;51.20
33943;DHT22;66763;47.856;17.462;2023-11-21T08:25:45;12.60;51.30
33943;DHT22;66763;47.856;17.462;2023-11-21T08:28:11;12.60;51.30
33943;DHT22;66763;47.856;17.462;2023-11-21T08:30:37;12.60;51.40
33943;DHT22;66763;47.856;17.462;2023-11-21T08:33:03;12.60;51.30
33943;DHT22;66763;47.856;17.462;2023-11-21T08:35:29;12.60;51.30
33943;DHT22;66763;47.856;17.462;2023-11-21T08:37:55;12.60;51.30
33943;DHT22;66763;47.856;17.462;2023-11-21T08:40:20;12.60;51.30
33943;DHT22;66763;47.856;17.462;2023-11-21T08:42:46;12.60;51.40
33943;DHT22;66763;47.856;17.462;2023-11-21T08:45:13;12.60;51.30
33943;DHT22;66763;47.856;17.462;2023-11-21T08:47:39;12.60;51.30
33943;DHT22;66763;47.856;17.462;2023-11-21T08:50:07;12.60;51.30
33943;DHT22;66763;47.856;17.462;2023-11-21T08:52:33;12.60;51.30
33943;DHT22;66763;47.856;17.462;2023-11-21T08:54:59;12.60;51.40
33943;DHT22;66763;47.856;17.462;2023-11-21T08:57:28;12.60;51.40
33943;DHT22;66763;47.856;17.462;2023-11-21T08:59:53;12.60;51.40
33943;DHT22;66763;47.856;17.462;2023-11-21T09:02:21;12.60;51.30
33943;DHT22;66763;47.856;17.462;2023-11-21T09:04:47;12.60;51.30
33943;DHT22;66763;47.856;17.462;2023-11-21T09:07:13;12.60;51.40
33943;DHT22;66763;47.856;17.462;2023-11-21T09:09:38;12.60;51.30
33943;DHT22;66763;47.856;17.462;2023-11-21T09:12:04;12.60;51.30
33943;DHT22;66763;47.856;17.462;2023-11-21T09:14:29;12.60;51.30
33943;DHT22;66763;47.856;17.462;2023-11-21T09:16:55;12.60;51.30
33943;DHT22;66763;47.856;17.462;2023-11-21T09:19:21;12.60;51.30
33943;DHT22;66763;47.856;17.462;2023-11-21T09:21:47;12.70;51.30
33943;DHT22;66763;47.856;17.462;2023-11-21T09:24:12;12.60;51.30
33943;DHT22;66763;47.856;17.462;2023-11-21T09:26:38;12.60;51.40
33943;DHT22;66763;47.856;17.462;2023-11-21T09:29:04;12.60;51.30
33943;DHT22;66763;47.856;17.462;2023-11-21T09:31:29;12.60;51.30
33943;DHT22;66763;47.856;17.462;2023-11-21T09:33:56;12.60;51.40
33943;DHT22;66763;47.856;17.462;2023-11-21T09:36:22;12.60;51.40
33943;DHT22;66763;47.856;17.462;2023-11-21T09:38:53;12.60;51.40
33943;DHT22;66763;47.856;17.462;2023-11-21T09:41:22;12.60;51.30
33943;DHT22;66763;47.856;17.462;2023-11-21T09:43:49;12.60;51.40
33943;DHT22;66763;47.856;17.462;2023-11-21T09:46:18;12.60;51.40
33943;DHT22;66763;47.856;17.462;2023-11-21T09:48:48;12.60;51.40
33943;DHT22;66763;47.856;17.462;2023-11-21T09:51:15;12.60;51.30
33943;DHT22;66763;47.856;17.462;2023-11-21T09:53:42;12.60;51.30
33943;DHT22;66763;47.856;17.462;2023-11-21T09:56:09;12.60;51.30
33943;DHT22;66763;47.856;17.462;2023-11-21T09:58:34;12.60;51.30
33943;DHT22;66763;47.856;17.462;2023-11-21T10:01:00;12.60;51.30
33943;DHT22;66763;47.856;17.462;2023-11-21T10:03:28;12.70;51.30
33943;DHT22;66763;47.856;17.462;2023-11-21T10:05:53;12.60;51.90
33943;DHT22;66763;47.856;17.462;2023-11-21T10:08:21;12.60;51.30
33943;DHT22;66763;47.856;17.462;2023-11-21T10:10:49;12.60;51.30
33943;DHT22;66763;47.856;17.462;2023-11-21T10:13:16;12.60;51.30
33943;DHT22;66763;47.856;17.462;2023-11-21T10:15:43;12.60;51.30
33943;DHT22;66763;47.856;17.462;2023-11-21T10:18:14;12.60;51.90
33943;DHT22;66763;47.856;17.462;2023-11-21T10:20:40;12.60;51.30
33943;DHT22;66763;47.856;17.462;2023-11-21T10:23:06;12.60;51.30
33943;DHT22;66763;47.856;17.462;2023-11-21T10:25:32;12.60;51.30
33943;DHT22;66763;47.856;17.462;2023-11-21T10:27:59;12.60;51.30
33943;DHT22;66763;47.856;17.462;2023-11-21T10:30:38;12.60;51.30
33943;DHT22;66763;47.856;17.462;2023-11-21T10:33:05;12.60;51.30
33943;DHT22;66763;47.856;17.462;2023-11-21T10:35:44;12.60;51.30
33943;DHT22;66763;47.856;17.462;2023-11-21T10:38:15;12.60;51.30
33943;DHT22;66763;47.856;17.462;2023-11-21T10:40:41;12.60;51.40
33943;DHT22;66763;47.856;17.462;2023-11-21T10:43:07;12.60;51.40
33943;DHT22;66763;47.856;17.462;2023-11-21T10:45:39;12.60;51.40
33943;DHT22;66763;47.856;17.462;2023-11-21T10:48:06;12.60;51.40
33943;DHT22;66763;47.856;17.462;2023-11-21T10:50:33;12.60;51.40
33943;DHT22;66763;47.856;17.462;2023-11-21T10:53:00;12.60;51.40
33943;DHT22;66763;47.856;17.462;2023-11-21T10:55:26;12.60;51.40
33943;DHT22;66763;47.856;17.462;2023-11-21T10:57:52;12.60;51.40
33943;DHT22;66763;47.856;17.462;2023-11-21T11:00:18;12.60;51.40
33943;DHT22;66763;47.856;17.462;2023-11-21T11:02:55;12.60;51.40
33943;DHT22;66763;47.856;17.462;2023-11-21T11:05:22;12.60;51.40
33943;DHT22;66763;47.856;17.462;2023-11-21T11:07:53;12.60;51.30
33943;DHT22;66763;47.856;17.462;2023-11-21T11:10:25;12.60;51.40
33943;DHT22;66763;47.856;17.462;2023-11-21T11:12:53;12.60;51.30
33943;DHT22;66763;47.856;17.462;2023-11-21T11:15:19;12.60;51.40
33943;DHT22;66763;47.856;17.462;2023-11-21T11:17:45;12.60;51.30
33943;DHT22;66763;47.856;17.462;2023-11-21T11:20:11;12.60;51.40
33943;DHT22;66763;47.856;17.462;2023-11-21T11:22:40;12.60;51.40
33943;DHT22;66763;47.856;17.462;2023-11-21T11:30:27;12.60;51.40
33943;DHT22;66763;47.856;17.462;2023-11-21T11:36:04;12.60;51.50
33943;DHT22;66763;47.856;17.462;2023-11-21T11:38:31;12.60;51.50
33943;DHT22;66763;47.856;17.462;2023-11-21T11:41:00;12.60;51.50
33943;DHT22;66763;47.856;17.462;2023-11-21T11:43:28;12.60;51.50
33943;DHT22;66763;47.856;17.462;2023-11-21T11:45:57;12.60;51.50
33943;DHT22;66763;47.856;17.462;2023-11-21T11:48:24;12.60;51.50
33943;DHT22;66763;47.856;17.462;2023-11-21T11:51:02;12.60;52.10
33943;DHT22;66763;47.856;17.462;2023-11-21T11:54:07;12.60;51.50
33943;DHT22;66763;47.856;17.462;2023-11-21T11:56:28;12.60;51.50
33943;DHT22;66763;47.856;17.462;2023-11-21T11:58:57;12.60;51.50
33943;DHT22;66763;47.856;17.462;2023-11-21T12:01:24;12.60;51.50
33943;DHT22;66763;47.856;17.462;2023-11-21T12:06:34;12.60;51.50
33943;DHT22;66763;47.856;17.462;2023-11-21T12:09:01;12.60;51.50
33943;DHT22;66763;47.856;17.462;2023-11-21T12:11:30;12.60;51.50
33943;DHT22;66763;47.856;17.462;2023-11-21T12:13:55;12.60;51.60
33943;DHT22;66763;47.856;17.462;2023-11-21T12:16:21;12.60;51.50
33943;DHT22;66763;47.856;17.462;2023-11-21T12:18:48;12.60;51.50
33943;DHT22;66763;47.856;17.462;2023-11-21T12:21:13;12.60;51.50
33943;DHT22;66763;47.856;17.462;2023-11-21T12:23:39;12.60;51.60
33943;DHT22;66763;47.856;17.462;2023-11-21T12:26:06;12.60;51.60
33943;DHT22;66763;47.856;17.462;2023-11-21T12:28:31;12.60;51.50
33943;DHT22;66763;47.856;17.462;2023-11-21T12:30:57;12.60;51.60
33943;DHT22;66763;47.856;17.462;2023-11-21T12:33:22;12.60;51.60
33943;DHT22;66763;47.856;17.462;2023-11-21T12:35:48;12.60;51.50
33943;DHT22;66763;47.856;17.462;2023-11-21T12:38:13;12.60;51.60
33943;DHT22;66763;47.856;17.462;2023-11-21T12:40:39;12.60;51.60
33943;DHT22;66763;47.856;17.462;2023-11-21T12:43:05;12.60;51.60
33943;DHT22;66763;47.856;17.462;2023-11-21T12:45:32;12.60;51.60
33943;DHT22;66763;47.856;17.462;2023-11-21T12:48:04;12.60;51.60
33943;DHT22;66763;47.856;17.462;2023-11-21T12:50:34;12.60;51.60
33943;DHT22;66763;47.856;17.462;2023-11-21T12:55:33;12.60;51.60
33943;DHT22;66763;47.856;17.462;2023-11-21T12:58:03;12.60;51.60
33943;DHT22;66763;47.856;17.462;2023-11-21T13:00:42;12.60;51.50
33943;DHT22;66763;47.856;17.462;2023-11-21T13:03:08;12.60;51.60
33943;DHT22;66763;47.856;17.462;2023-11-21T13:05:35;12.60;51.60
33943;DHT22;66763;47.856;17.462;2023-11-21T13:08:02;12.60;51.60
33943;DHT22;66763;47.856;17.462;2023-11-21T13:10:29;12.60;51.60
33943;DHT22;66763;47.856;17.462;2023-11-21T13:12:59;12.60;51.60
33943;DHT22;66763;47.856;17.462;2023-11-21T13:15:25;12.60;51.60
33943;DHT22;66763;47.856;17.462;2023-11-21T13:17:51;12.60;51.60
33943;DHT22;66763;47.856;17.462;2023-11-21T13:20:19;12.60;51.60
33943;DHT22;66763;47.856;17.462;2023-11-21T13:22:49;12.60;51.70
33943;DHT22;66763;47.856;17.462;2023-11-21T13:25:15;12.60;51.60
33943;DHT22;66763;47.856;17.462;2023-11-21T13:27:43;12.60;51.60
33943;DHT22;66763;47.856;17.462;2023-11-21T13:30:09;12.60;51.60
33943;DHT22;66763;47.856;17.462;2023-11-21T13:32:35;12.60;51.70
33943;DHT22;66763;47.856;17.462;2023-11-21T13:35:01;12.60;51.60
33943;DHT22;66763;47.856;17.462;2023-11-21T13:37:26;12.60;51.60
33943;DHT22;66763;47.856;17.462;2023-11-21T13:39:53;12.60;51.60
33943;DHT22;66763;47.856;17.462;2023-11-21T13:42:20;12.60;51.60
33943;DHT22;66763;47.856;17.462;2023-11-21T13:44:48;12.60;51.70
33943;DHT22;66763;47.856;17.462;2023-11-21T13:47:14;12.60;51.70
33943;DHT22;66763;47.856;17.462;2023-11-21T13:49:39;12.60;51.70
33943;DHT22;66763;47.856;17.462;2023-11-21T13:52:07;12.60;51.60
33943;DHT22;66763;47.856;17.462;2023-11-21T13:54:32;12.60;51.70
33943;DHT22;66763;47.856;17.462;2023-11-21T13:56:58;12.60;51.60
33943;DHT22;66763;47.856;17.462;2023-11-21T13:59:25;12.60;51.60
33943;DHT22;66763;47.856;17.462;2023-11-21T14:01:53;12.60;51.60
33943;DHT22;66763;47.856;17.462;2023-11-21T14:04:23;12.60;51.60
33943;DHT22;66763;47.856;17.462;2023-11-21T14:06:58;12.60;51.60
33943;DHT22;66763;47.856;17.462;2023-11-21T14:09:26;12.60;51.60
33943;DHT22;66763;47.856;17.462;2023-11-21T14:11:58;12.60;51.70
33943;DHT22;66763;47.856;17.462;2023-11-21T14:14:25;12.60;51.70
33943;DHT22;66763;47.856;17.462;2023-11-21T14:16:51;12.60;51.70
33943;DHT22;66763;47.856;17.462;2023-11-21T14:19:17;12.60;51.70
33943;DHT22;66763;47.856;17.462;2023-11-21T14:21:43;12.60;51.60
33943;DHT22;66763;47.856;17.462;2023-11-21T14:24:09;12.60;51.60
33943;DHT22;66763;47.856;17.462;2023-11-21T14:26:35;12.60;51.60
33943;DHT22;66763;47.856;17.462;2023-11-21T14:29:00;12.60;51.60
33943;DHT22;66763;47.856;17.462;2023-11-21T14:31:26;12.60;51.60
33943;DHT22;66763;47.856;17.462;2023-11-21T14:33:53;12.60;51.60
33943;DHT22;66763;47.856;17.462;2023-11-21T14:36:18;12.60;51.70
33943;DHT22;66763;47.856;17.462;2023-11-21T14:38:44;12.60;51.60
33943;DHT22;66763;47.856;17.462;2023-11-21T14:41:09;12.60;51.60
33943;DHT22;66763;47.856;17.462;2023-11-21T14:43:36;12.60;51.70
33943;DHT22;66763;47.856;17.462;2023-11-21T14:46:03;12.60;51.70
33943;DHT22;66763;47.856;17.462;2023-11-21T14:48:31;12.60;51.70
33943;DHT22;66763;47.856;17.462;2023-11-21T14:51:13;12.60;51.70
33943;DHT22;66763;47.856;17.462;2023-11-21T14:53:53;12.60;51.70
33943;DHT22;66763;47.856;17.462;2023-11-21T14:56:22;12.60;51.70
33943;DHT22;66763;47.856;17.462;2023-11-21T14:58:57;12.60;51.70
33943;DHT22;66763;47.856;17.462;2023-11-21T15:01:23;12.60;51.80
33943;DHT22;66763;47.856;17.462;2023-11-21T15:04:07;12.60;51.70
33943;DHT22;66763;47.856;17.462;2023-11-21T15:06:33;12.60;51.80
33943;DHT22;66763;47.856;17.462;2023-11-21T15:08:59;12.60;51.80
33943;DHT22;66763;47.856;17.462;2023-11-21T15:11:34;12.60;51.80
33943;DHT22;66763;47.856;17.462;2023-11-21T15:14:00;12.60;51.80
33943;DHT22;66763;47.856;17.462;2023-11-21T15:16:28;12.60;51.80
33943;DHT22;66763;47.856;17.462;2023-11-21T15:18:53;12.60;51.80
33943;DHT22;66763;47.856;17.462;2023-11-21T15:21:20;12.60;51.80
33943;DHT22;66763;47.856;17.462;2023-11-21T15:23:47;12.60;51.80
33943;DHT22;66763;47.856;17.462;2023-11-21T15:26:13;12.60;51.80